Time;durP1;ratioP1;P1;durP2;ratioP2;P2;SDS_P1;SDS_P2;PMS_P1;PMS_P2;Temp;Humidity;BMP_temperature;BMP_pressure;BME280_temperature;BME280_humidity;BME280_pressure;Samples;Min_cycle;Max_cycle;Signal;HPM_P1;HPM_P2
2022/07/04 00:00:09;;;;;;;2.15;1.48;;;20.00;98.00;;;19.97;77.87;97386.47;4932957;28;20684;-40
2022/07/04 00:02:41;;;;;;;2.90;1.10;;;20.00;98.00;;;19.96;78.57;97395.44;4935127;29;20110;-40
2022/07/04 00:05:10;;;;;;;1.93;1.40;;;20.00;98.30;;;19.93;77.45;97384.97;4934955;28;20037;-40
2022/07/04 00:07:37;;;;;;;2.80;1.40;;;20.00;98.00;;;19.92;78.13;97393.13;4936780;28;20309;-39
2022/07/04 00:10:08;;;;;;;3.72;1.20;;;19.90;98.20;;;19.88;79.06;97380.94;4932897;28;20138;-40
2022/07/04 00:12:34;;;;;;;3.90;1.40;;;19.90;98.50;;;19.85;78.63;97379.34;4936566;29;20499;-40
2022/07/04 00:15:01;;;;;;;2.50;1.20;;;19.90;98.40;;;19.82;79.69;97374.22;4935532;28;20035;-39
2022/07/04 00:17:27;;;;;;;3.78;1.23;;;19.90;98.60;;;19.77;80.32;97373.72;4933556;28;20027;-39
2022/07/04 00:19:53;;;;;;;4.45;1.20;;;19.90;99.00;;;19.81;78.66;97377.84;4938731;28;20102;-39
2022/07/04 00:22:18;;;;;;;3.72;1.42;;;19.80;98.60;;;19.58;79.99;97348.31;4936676;29;20035;-39
2022/07/04 00:24:44;;;;;;;1.55;1.27;;;19.70;99.30;;;19.68;81.16;97361.84;4940045;29;20374;-39
2022/07/04 00:27:10;;;;;;;2.75;1.40;;;19.70;99.20;;;19.62;81.63;97373.84;4939072;29;20050;-39
2022/07/04 00:29:36;;;;;;;3.75;1.35;;;19.70;99.60;;;19.55;82.67;97367.25;4939428;28;20043;-39
2022/07/04 00:32:02;;;;;;;2.03;1.35;;;19.60;99.90;;;19.50;81.85;97385.47;4934205;29;20484;-39
2022/07/04 00:34:28;;;;;;;2.00;1.33;;;19.60;99.70;;;19.51;79.93;97380.97;4919475;29;20340;-39
2022/07/04 00:36:53;;;;;;;2.35;1.30;;;19.60;99.30;;;19.50;81.93;97376.59;4935682;29;20047;-39
2022/07/04 00:39:20;;;;;;;4.03;1.48;;;19.60;99.80;;;19.46;82.41;97381.31;4935844;28;20066;-40
2022/07/04 00:41:46;;;;;;;2.92;1.40;;;19.50;99.90;;;19.42;82.88;97366.47;4939122;29;20019;-39
2022/07/04 00:44:15;;;;;;;5.25;1.52;;;19.50;99.90;;;19.43;82.47;97385.06;4936867;28;20419;-39
2022/07/04 00:46:42;;;;;;;1.75;1.27;;;19.50;99.90;;;19.41;82.43;97383.47;4935321;28;20043;-39
2022/07/04 00:49:09;;;;;;;4.00;1.20;;;19.50;99.90;;;19.41;81.47;97388.81;4931309;28;20078;-39
2022/07/04 00:51:38;;;;;;;3.80;1.60;;;19.50;99.90;;;19.40;80.27;97396.00;4936697;28;20032;-39
2022/07/04 00:54:06;;;;;;;2.78;1.30;;;19.50;99.80;;;19.38;80.82;97399.72;4934309;28;20050;-39
2022/07/04 00:56:35;;;;;;;3.75;1.35;;;19.50;99.90;;;19.36;81.16;97393.63;4940148;28;20027;-39
2022/07/04 00:59:01;;;;;;;5.57;1.58;;;19.40;99.90;;;19.34;82.37;97401.75;4939122;28;20027;-39
2022/07/04 01:01:27;;;;;;;4.45;1.20;;;19.40;99.90;;;19.30;81.44;97394.94;4927228;28;20034;-39
2022/07/04 01:03:53;;;;;;;8.43;1.38;;;19.40;99.90;;;19.27;81.02;97384.47;4931858;28;20316;-39
2022/07/04 01:06:19;;;;;;;1.90;1.30;;;19.30;99.90;;;19.22;82.34;97382.13;4930267;28;20039;-39
2022/07/04 01:08:46;;;;;;;1.45;1.10;;;19.30;99.90;;;19.17;82.21;97389.63;4936302;29;20046;-39
2022/07/04 01:11:12;;;;;;;2.70;1.20;;;19.20;99.90;;;19.12;82.76;97390.94;4929021;29;20043;-39
2022/07/04 01:13:41;;;;;;;2.65;1.23;;;19.20;99.90;;;19.10;83.17;97398.22;4964912;23;20043;-39
2022/07/04 01:16:07;;;;;;;1.35;1.20;;;19.20;99.90;;;19.08;83.79;97395.63;4946668;28;20036;-39
2022/07/04 01:18:33;;;;;;;3.80;1.25;;;19.20;99.90;;;19.03;81.77;97387.09;4945721;28;20030;-39
2022/07/04 01:20:59;;;;;;;4.80;1.33;;;19.10;99.90;;;18.95;84.16;97392.13;4959874;28;20480;-39
2022/07/04 01:23:25;;;;;;;2.00;1.20;;;19.10;99.90;;;18.93;84.86;97392.22;4941835;28;20055;-37
2022/07/04 01:25:52;;;;;;;2.17;1.20;;;19.00;99.90;;;18.88;85.40;97387.22;4939107;28;22503;-37
2022/07/04 01:28:22;;;;;;;2.85;1.48;;;19.00;99.90;;;18.84;85.57;97390.19;4925705;28;20035;-38
2022/07/04 01:30:48;;;;;;;1.80;1.20;;;18.90;99.90;;;18.79;85.65;97395.84;4940056;28;20043;-38
2022/07/04 01:33:17;;;;;;;1.90;1.13;;;18.90;99.90;;;18.74;86.26;97402.50;4937511;28;20047;-38
2022/07/04 01:35:44;;;;;;;2.42;1.40;;;18.90;99.90;;;18.67;85.76;97402.91;4935071;28;20035;-38
2022/07/04 01:38:09;;;;;;;3.95;1.35;;;18.80;99.90;;;18.58;86.33;97400.03;4920974;29;20488;-38
2022/07/04 01:40:35;;;;;;;1.95;1.17;;;18.70;99.90;;;18.55;86.86;97398.41;4936964;28;20046;-37
2022/07/04 01:43:01;;;;;;;3.42;1.20;;;18.60;99.90;;;18.49;86.55;97396.19;4933915;28;20034;-38
2022/07/04 01:45:27;;;;;;;1.65;1.20;;;18.60;99.90;;;18.46;86.62;97396.38;4934552;28;20133;-38
2022/07/04 01:47:53;;;;;;;3.10;1.40;;;18.60;99.90;;;18.33;86.59;97387.50;4938744;28;20357;-38
2022/07/04 01:50:18;;;;;;;4.40;1.60;;;18.60;99.90;;;18.47;87.76;97406.13;4935409;28;20364;-38
2022/07/04 01:52:44;;;;;;;3.70;1.33;;;18.60;99.90;;;18.49;87.55;97406.84;4934451;28;20495;-37
2022/07/04 01:55:11;;;;;;;5.30;1.48;;;18.60;99.90;;;18.47;86.06;97408.78;4932718;28;20415;-38
2022/07/04 01:57:38;;;;;;;2.08;1.02;;;18.60;99.90;;;18.45;87.11;97414.22;4938234;28;20073;-37
2022/07/04 02:02:52;;;;;;;7.35;1.48;;;18.60;99.90;;;18.36;88.48;97411.31;4941389;28;20345;-38
2022/07/04 02:05:18;;;;;;;2.65;1.60;;;18.50;99.90;;;18.35;87.11;97415.81;4936597;28;20484;-38
2022/07/04 02:07:44;;;;;;;4.28;1.50;;;18.50;99.90;;;18.34;88.48;97424.78;4937272;28;20098;-38
2022/07/04 02:10:10;;;;;;;2.90;1.25;;;18.50;99.90;;;18.33;87.92;97423.06;4938856;28;20495;-38
2022/07/04 02:15:21;;;;;;;2.40;1.50;;;18.40;99.90;;;18.26;85.89;97422.63;4932005;28;20101;-37
2022/07/04 02:17:47;;;;;;;4.20;1.30;;;18.30;99.90;;;18.22;85.74;97431.81;4937004;28;20031;-38
2022/07/04 02:20:13;;;;;;;5.43;1.58;;;18.30;99.90;;;18.21;86.22;97422.06;4934493;28;20894;-38
2022/07/04 02:22:39;;;;;;;3.45;1.30;;;18.30;99.90;;;18.18;87.21;97432.09;4927972;28;20057;-40
2022/07/04 02:25:06;;;;;;;6.90;1.60;;;18.30;99.90;;;18.15;86.97;97427.00;4931918;28;20512;-37
2022/07/04 02:27:32;;;;;;;4.95;1.52;;;18.20;99.90;;;18.08;88.76;97423.88;4934165;28;20143;-37
2022/07/04 02:29:57;;;;;;;2.63;1.50;;;18.20;99.90;;;18.05;90.12;97432.94;4940703;28;20058;-38
2022/07/04 02:32:23;;;;;;;4.38;1.60;;;18.20;99.90;;;18.01;90.03;97436.75;4934972;28;20530;-38
2022/07/04 02:34:49;;;;;;;3.05;1.45;;;18.10;99.90;;;17.98;89.11;97433.44;4933250;28;20047;-38
2022/07/04 02:37:15;;;;;;;3.22;1.10;;;18.10;99.90;;;17.86;90.99;97429.78;4932331;28;20419;-38
2022/07/04 02:39:40;;;;;;;3.45;1.70;;;18.10;99.90;;;17.93;90.76;97450.63;4935032;28;20035;-38
2022/07/04 02:42:06;;;;;;;3.17;1.48;;;18.10;99.90;;;17.89;89.57;97453.56;4932919;28;20532;-38
2022/07/04 02:44:32;;;;;;;3.50;1.35;;;18.00;99.90;;;17.84;89.04;97445.84;4936066;28;20491;-38
2022/07/04 02:46:57;;;;;;;1.85;1.20;;;18.00;99.90;;;17.82;89.66;97452.22;4935838;28;20046;-38
2022/07/04 02:49:23;;;;;;;3.10;1.33;;;18.00;99.90;;;17.77;89.85;97454.38;4932808;28;20035;-38
2022/07/04 02:51:49;;;;;;;4.82;1.50;;;17.90;99.90;;;17.74;92.35;97466.06;4936634;28;20027;-38
2022/07/04 02:54:15;;;;;;;6.38;1.45;;;17.80;99.90;;;17.71;90.97;97461.81;4933866;28;20510;-38
2022/07/04 02:56:42;;;;;;;4.00;1.38;;;17.80;99.90;;;17.66;91.28;97463.06;4936858;28;20146;-38
2022/07/04 02:59:07;;;;;;;4.47;1.50;;;17.80;99.90;;;17.62;91.65;97456.19;4936960;28;20043;-38
2022/07/04 03:01:33;;;;;;;4.50;1.42;;;17.70;99.90;;;17.60;92.60;97474.97;4934834;28;20045;-38
2022/07/04 03:03:59;;;;;;;2.55;1.00;;;17.70;99.90;;;17.55;92.60;97477.94;4933167;28;20078;-37
2022/07/04 03:06:25;;;;;;;1.98;1.30;;;17.70;99.90;;;17.52;93.24;97482.63;4933985;28;20051;-38
2022/07/04 03:08:52;;;;;;;1.65;1.30;;;17.70;99.90;;;17.47;93.18;97472.22;4932185;28;20058;-38
2022/07/04 03:11:19;;;;;;;1.77;1.30;;;17.60;99.90;;;17.43;94.06;97481.38;4934310;28;20295;-38
2022/07/04 03:13:44;;;;;;;5.85;1.60;;;17.60;99.90;;;17.39;92.84;97484.31;4932745;28;20059;-37
2022/07/04 03:16:11;;;;;;;2.13;1.35;;;17.50;99.90;;;17.33;93.60;97473.09;4933264;28;20035;-37
2022/07/04 03:18:37;;;;;;;1.77;1.40;;;17.50;99.90;;;17.31;93.74;97479.50;4933236;28;20031;-38
2022/07/04 03:21:04;;;;;;;2.60;1.75;;;17.50;99.90;;;17.25;93.49;97488.72;4933103;28;20043;-38
2022/07/04 03:23:31;;;;;;;2.28;1.50;;;17.40;99.90;;;17.18;94.37;97476.75;4930579;28;20035;-38
2022/07/04 03:25:57;;;;;;;2.22;1.30;;;17.40;99.90;;;17.10;95.59;97476.34;4922649;28;20042;-38
2022/07/04 03:28:23;;;;;;;6.50;1.60;;;17.30;99.90;;;17.06;95.70;97481.00;4941062;28;20053;-37
2022/07/04 03:30:49;;;;;;;2.88;1.48;;;17.30;99.90;;;17.00;96.94;97475.22;4936169;28;20616;-37
2022/07/04 03:33:14;;;;;;;2.20;1.20;;;17.20;99.90;;;16.97;96.87;97471.78;4939227;28;20039;-37
2022/07/04 03:35:40;;;;;;;3.15;1.52;;;17.10;99.90;;;16.93;97.22;97478.25;4938778;28;20067;-37
2022/07/04 03:38:06;;;;;;;2.88;1.70;;;17.10;99.90;;;16.90;96.41;97493.56;4943173;28;20243;-38
2022/07/04 03:40:32;;;;;;;2.67;1.40;;;17.10;99.90;;;16.89;96.93;97494.53;4942834;28;20043;-38
2022/07/04 03:42:58;;;;;;;2.30;1.33;;;17.10;99.90;;;16.86;96.88;97495.56;4938720;28;20031;-37
2022/07/04 03:45:25;;;;;;;3.60;1.27;;;17.00;99.90;;;16.86;97.02;97497.38;4937747;28;20047;-38
2022/07/04 03:47:50;;;;;;;1.52;1.10;;;17.00;99.90;;;16.77;97.62;97491.59;4938689;28;20035;-37
2022/07/04 03:50:17;;;;;;;2.70;1.27;;;17.00;99.90;;;16.82;98.75;97498.50;4936957;28;20098;-37
2022/07/04 03:52:43;;;;;;;3.50;1.40;;;17.00;99.90;;;16.85;98.33;97498.31;4936678;28;20034;-37
2022/07/04 03:55:09;;;;;;;2.85;1.40;;;17.00;99.90;;;16.87;97.87;97507.94;4937614;28;20126;-38
2022/07/04 03:57:35;;;;;;;4.05;1.67;;;17.00;99.90;;;16.89;97.83;97499.88;4935231;28;20061;-38
2022/07/04 04:00:01;;;;;;;2.70;1.35;;;17.10;99.90;;;16.88;97.78;97495.47;4924082;28;20516;-38
2022/07/04 04:02:26;;;;;;;4.07;1.55;;;17.00;99.90;;;16.93;97.71;97506.72;4932153;28;20015;-38
2022/07/04 04:07:37;;;;;;;3.45;1.95;;;17.10;99.90;;;17.01;95.01;97517.72;4934159;28;20130;-37
2022/07/04 04:10:03;;;;;;;2.38;1.52;;;17.10;99.90;;;17.01;95.65;97514.22;4934400;28;20059;-37
2022/07/04 04:12:28;;;;;;;6.57;1.30;;;17.10;99.90;;;17.03;95.89;97509.66;4935781;28;20066;-37
2022/07/04 04:14:54;;;;;;;2.15;1.42;;;17.20;99.90;;;17.05;94.81;97523.72;4931574;28;20280;-37
2022/07/04 04:17:20;;;;;;;2.03;1.60;;;17.20;99.90;;;17.05;93.45;97526.41;4927518;28;20031;-38
2022/07/04 04:19:45;;;;;;;3.70;1.60;;;17.20;99.90;;;17.02;95.24;97523.94;4932710;28;20034;-37
2022/07/04 04:22:11;;;;;;;3.05;1.48;;;17.20;99.90;;;17.03;96.33;97533.63;4936567;28;20067;-37
2022/07/04 04:24:37;;;;;;;3.05;1.40;;;17.20;99.90;;;17.01;95.60;97543.53;4933708;28;20035;-38
2022/07/04 04:27:03;;;;;;;3.83;1.35;;;17.20;99.90;;;17.01;95.52;97531.06;4937663;28;20443;-37
2022/07/04 04:29:29;;;;;;;4.03;1.58;;;17.20;99.90;;;17.03;95.54;97533.63;4937482;28;20031;-38
2022/07/04 04:31:54;;;;;;;2.75;1.48;;;17.20;99.90;;;17.10;95.32;97545.63;4941430;28;20447;-38
2022/07/04 04:34:20;;;;;;;4.28;1.65;;;17.30;99.90;;;17.12;95.46;97562.38;4938105;28;20042;-38
2022/07/04 04:36:46;;;;;;;2.05;1.52;;;17.20;99.90;;;17.00;96.05;97524.03;4940879;28;20439;-38
2022/07/04 04:39:13;;;;;;;3.88;1.40;;;17.30;99.90;;;17.19;96.39;97561.06;4939610;28;20035;-37
2022/07/04 04:41:39;;;;;;;3.67;1.40;;;17.30;99.90;;;17.19;96.52;97555.72;4940214;28;20090;-38
2022/07/04 04:44:05;;;;;;;2.28;1.38;;;17.30;99.90;;;17.05;96.54;97523.72;4938759;28;20031;-38
2022/07/04 04:46:31;;;;;;;4.88;1.40;;;17.40;99.90;;;17.23;91.99;97565.25;4935840;28;20046;-38
2022/07/04 04:48:57;;;;;;;2.90;1.50;;;17.40;99.90;;;17.23;93.58;97562.59;4940799;28;20031;-38
2022/07/04 04:51:22;;;;;;;4.65;1.30;;;17.30;99.90;;;17.06;92.79;97544.09;4936513;28;20094;-38
2022/07/04 04:53:48;;;;;;;2.35;1.40;;;17.40;99.90;;;17.27;93.61;97573.94;4937184;28;20063;-38
2022/07/04 04:56:14;;;;;;;2.67;1.60;;;17.40;99.90;;;17.32;92.96;97587.84;4943649;28;20046;-38
2022/07/04 04:58:39;;;;;;;6.43;1.30;;;17.40;99.90;;;17.39;92.74;97589.19;4941957;28;20564;-38
2022/07/04 05:01:05;;;;;;;1.50;1.30;;;17.50;99.90;;;17.50;91.19;97588.50;4937639;28;20389;-38
2022/07/04 05:03:31;;;;;;;3.22;1.33;;;17.50;99.90;;;17.65;89.41;97581.34;4938307;28;20031;-38
2022/07/04 05:05:57;;;;;;;2.88;1.40;;;17.70;99.90;;;17.77;89.73;97579.75;4942746;28;20031;-38
2022/07/04 05:08:25;;;;;;;3.17;1.25;;;17.80;99.90;;;17.87;88.88;97579.09;4939814;28;20055;-37
2022/07/04 05:10:52;;;;;;;2.15;1.35;;;17.90;99.90;;;17.92;89.33;97584.13;4941566;28;20772;-38
2022/07/04 05:13:18;;;;;;;3.58;1.50;;;18.00;99.90;;;17.88;86.51;97577.28;4939094;28;20036;-38
2022/07/04 05:15:45;;;;;;;1.50;1.15;;;18.00;99.90;;;17.90;88.09;97583.34;4937292;28;20034;-38
2022/07/04 05:18:12;;;;;;;3.63;1.60;;;18.00;99.90;;;17.94;89.87;97590.19;4943213;28;20504;-38
2022/07/04 05:20:39;;;;;;;5.80;1.50;;;18.00;99.90;;;17.97;89.79;97590.00;4939350;28;20057;-38
2022/07/04 05:23:05;;;;;;;3.08;1.60;;;18.00;99.90;;;18.02;88.88;97585.25;4935955;28;20035;-38
2022/07/04 05:25:32;;;;;;;5.15;1.52;;;18.10;99.90;;;18.20;88.73;97585.03;4936110;28;20035;-38
2022/07/04 05:27:58;;;;;;;2.15;1.40;;;18.20;99.90;;;18.71;84.97;97574.50;4941037;28;20035;-38
2022/07/04 05:30:24;;;;;;;2.10;1.40;;;18.40;99.90;;;19.00;84.25;97571.72;4936405;28;20078;-38
2022/07/04 05:32:49;;;;;;;3.58;1.30;;;18.60;99.90;;;19.21;83.04;97582.75;4940910;28;20121;-38
2022/07/04 05:35:15;;;;;;;4.38;1.30;;;18.70;99.90;;;19.21;83.95;97583.59;4942674;29;20035;-38
2022/07/04 05:37:41;;;;;;;1.30;1.17;;;18.80;99.90;;;19.11;83.62;97577.16;4938054;28;20032;-37
2022/07/04 05:40:08;;;;;;;1.60;1.05;;;18.80;99.90;;;19.06;83.92;97582.84;4943625;28;20042;-38
2022/07/04 05:42:37;;;;;;;3.85;1.48;;;18.80;99.90;;;19.01;83.47;97584.13;4936900;28;20027;-38
2022/07/04 05:45:04;;;;;;;5.05;1.40;;;18.80;99.90;;;19.03;84.63;97582.19;4935001;28;20039;-38
2022/07/04 05:47:29;;;;;;;4.50;1.50;;;18.90;99.90;;;19.14;83.49;97574.28;4933571;28;20040;-39
2022/07/04 05:49:55;;;;;;;3.95;1.25;;;18.90;99.90;;;19.21;80.68;97572.91;4930927;28;20149;-37
2022/07/04 05:52:21;;;;;;;1.67;1.30;;;19.10;99.90;;;19.37;78.99;97575.38;4937198;28;20043;-38
2022/07/04 05:54:48;;;;;;;3.40;1.30;;;19.30;99.90;;;19.55;78.29;97575.03;4940812;28;20031;-38
2022/07/04 05:57:13;;;;;;;4.82;1.42;;;19.50;99.90;;;19.69;73.66;97582.94;4940282;28;20032;-38
2022/07/04 05:59:39;;;;;;;2.65;1.30;;;19.60;99.90;;;19.78;70.33;97576.97;4941435;28;20027;-37
2022/07/04 06:02:05;;;;;;;5.32;1.35;;;19.80;99.90;;;19.94;72.08;97570.53;4938478;28;20348;-37
2022/07/04 06:04:31;;;;;;;2.25;1.27;;;19.90;99.90;;;20.08;72.11;97562.34;4938211;28;20031;-37
2022/07/04 06:06:57;;;;;;;2.85;1.15;;;20.00;99.90;;;20.29;71.51;97569.75;4941831;28;20059;-37
2022/07/04 06:09:23;;;;;;;4.43;1.33;;;20.20;99.90;;;20.34;75.12;97568.44;4931356;28;20027;-38
2022/07/04 06:11:48;;;;;;;6.32;1.73;;;20.30;99.90;;;20.39;75.36;97558.25;4935229;28;20035;-38
2022/07/04 06:14:14;;;;;;;4.45;1.10;;;20.40;99.90;;;20.38;71.82;97561.88;4939532;28;20045;-38
2022/07/04 06:16:40;;;;;;;2.08;1.13;;;20.40;99.90;;;20.44;70.98;97557.03;4938188;28;20043;-38
2022/07/04 06:19:06;;;;;;;4.45;1.50;;;20.50;99.90;;;20.46;71.63;97568.50;4942518;28;20343;-38
2022/07/04 06:21:31;;;;;;;3.17;1.10;;;20.40;99.90;;;20.46;70.60;97573.84;4918823;28;20031;-38
2022/07/04 06:23:58;;;;;;;1.95;1.35;;;20.40;99.90;;;20.32;70.85;97572.22;4934775;28;20057;-38
2022/07/04 06:26:24;;;;;;;4.25;1.20;;;20.40;99.90;;;20.35;71.48;97580.88;4937759;28;20053;-38
2022/07/04 06:28:49;;;;;;;3.58;1.40;;;20.40;99.90;;;20.39;70.58;97590.38;4936794;28;20031;-38
2022/07/04 06:31:15;;;;;;;3.50;1.42;;;20.40;99.90;;;20.34;71.31;97584.50;4935469;28;20089;-38
2022/07/04 06:36:27;;;;;;;1.48;1.15;;;20.40;99.90;;;20.41;71.32;97585.78;4937014;28;20539;-38
2022/07/04 06:38:52;;;;;;;1.77;1.15;;;20.40;99.90;;;20.60;71.06;97587.06;4935484;28;20047;-38
2022/07/04 06:41:18;;;;;;;5.13;1.30;;;20.50;99.90;;;20.81;69.66;97590.00;4917441;29;20031;-38
2022/07/04 06:43:44;;;;;;;4.10;1.27;;;20.80;99.90;;;20.92;66.74;97589.19;4939731;28;23218;-38
2022/07/04 06:46:09;;;;;;;4.32;1.85;;;20.90;99.90;;;20.93;65.12;97586.41;4937003;28;20085;-37
2022/07/04 06:48:36;;;;;;;3.55;1.33;;;21.00;99.90;;;21.03;67.75;97585.69;4937778;28;20047;-37
2022/07/04 06:51:02;;;;;;;4.75;1.25;;;21.10;99.90;;;21.12;67.71;97595.69;4931804;28;20043;-36
2022/07/04 06:53:28;;;;;;;2.65;1.33;;;21.20;99.90;;;21.30;66.53;97586.25;4935498;28;20034;-37
2022/07/04 06:55:53;;;;;;;4.65;1.25;;;21.30;99.90;;;21.35;65.90;97596.59;4928578;28;20065;-38
2022/07/04 06:58:19;;;;;;;1.98;1.40;;;21.50;99.90;;;21.47;65.09;97592.16;4931793;28;20097;-37
2022/07/04 07:00:45;;;;;;;2.45;1.20;;;21.50;99.60;;;21.45;63.42;97597.66;4936579;28;20027;-37
2022/07/04 07:03:10;;;;;;;2.22;1.13;;;21.50;99.00;;;21.44;65.58;97597.72;4935838;28;20420;-38
2022/07/04 07:05:36;;;;;;;2.72;1.55;;;21.50;99.60;;;21.47;68.59;97581.44;4938171;28;20074;-36
2022/07/04 07:08:04;;;;;;;2.15;1.65;;;21.50;99.90;;;21.42;64.86;97592.47;4937490;28;20150;-37
2022/07/04 07:10:32;;;;;;;1.40;1.08;;;21.50;99.70;;;21.61;65.25;97585.72;4935614;28;20444;-36
2022/07/04 07:12:58;;;;;;;1.23;1.10;;;21.60;99.80;;;21.78;66.47;97581.69;4941482;28;20035;-38
2022/07/04 07:15:24;;;;;;;1.77;1.30;;;21.70;99.90;;;21.89;64.13;97579.84;4935814;28;20039;-37
2022/07/04 07:17:50;;;;;;;2.53;1.40;;;21.90;99.70;;;22.01;64.00;97586.06;4938884;28;20030;-37
2022/07/04 07:20:16;;;;;;;3.88;1.23;;;22.00;99.20;;;22.16;61.52;97580.41;4939573;28;20404;-37
2022/07/04 07:22:42;;;;;;;3.47;1.50;;;22.10;98.70;;;22.21;62.52;97573.69;4932042;28;20424;-38
2022/07/04 07:25:10;;;;;;;3.50;1.40;;;22.20;98.80;;;22.34;62.14;97570.03;4938139;28;20521;-37
2022/07/04 07:27:37;;;;;;;4.05;1.20;;;22.30;98.60;;;22.44;61.84;97569.16;4937868;28;20285;-38
2022/07/04 07:30:04;;;;;;;1.52;1.17;;;22.40;98.60;;;22.58;62.32;97565.31;4935762;28;20039;-37
2022/07/04 07:32:30;;;;;;;1.35;1.10;;;22.50;98.60;;;22.58;61.67;97567.16;4955708;23;20495;-40
2022/07/04 07:34:55;;;;;;;3.80;1.40;;;22.60;98.10;;;22.58;60.98;97564.47;4967509;28;20066;-40
2022/07/04 07:37:22;;;;;;;1.50;1.30;;;22.60;98.10;;;22.45;60.46;97549.38;4959898;28;20478;-40
2022/07/04 07:39:48;;;;;;;2.17;1.20;;;22.60;97.40;;;22.56;59.97;97558.34;4967953;28;20120;-40
2022/07/04 07:42:15;;;;;;;2.53;1.50;;;22.60;97.90;;;22.49;60.96;97549.97;4967021;28;20577;-40
2022/07/04 07:44:40;;;;;;;2.13;1.08;;;22.60;97.80;;;22.51;61.86;97545.31;4953641;28;20023;-40
2022/07/04 07:47:07;;;;;;;3.35;1.23;;;22.50;97.80;;;22.54;62.79;97550.44;4955341;28;20491;-40
2022/07/04 07:49:32;;;;;;;2.20;1.20;;;22.60;98.30;;;22.64;64.01;97543.28;4948367;28;20039;-40
2022/07/04 07:51:58;;;;;;;1.52;1.25;;;22.60;98.60;;;22.71;61.26;97550.84;4943282;28;20066;-40
2022/07/04 07:54:24;;;;;;;4.43;1.30;;;22.70;98.20;;;22.68;61.55;97557.31;4953129;28;20031;-40
2022/07/04 07:56:50;;;;;;;3.47;1.45;;;22.80;98.10;;;22.78;61.59;97560.13;4953401;28;20086;-40
2022/07/04 07:59:17;;;;;;;3.38;1.30;;;22.80;97.70;;;22.84;61.29;97555.06;4949975;28;20138;-40
2022/07/04 08:01:42;;;;;;;2.55;1.33;;;22.90;97.80;;;22.87;62.11;97560.19;4952699;28;20149;-40
2022/07/04 08:06:52;;;;;;;2.92;1.50;;;22.90;97.50;;;22.95;59.23;97561.34;4954825;28;20150;-40
2022/07/04 08:09:18;;;;;;;4.18;1.60;;;23.00;97.40;;;22.80;60.00;97558.16;4954221;28;20031;-40
2022/07/04 08:11:44;;;;;;;3.47;1.33;;;22.90;96.90;;;22.87;61.12;97557.50;4961753;28;20031;-40
2022/07/04 08:14:09;;;;;;;2.42;1.30;;;22.90;97.10;;;22.82;61.15;97561.56;4959875;28;20484;-40
2022/07/04 08:16:35;;;;;;;3.10;1.48;;;22.90;97.30;;;22.86;62.64;97555.81;4957439;28;20062;-40
2022/07/04 08:19:02;;;;;;;7.53;2.10;;;22.90;97.90;;;22.73;62.78;97552.41;4963079;28;20038;-40
2022/07/04 08:21:28;;;;;;;3.85;1.35;;;22.80;98.70;;;22.61;65.82;97545.38;4960806;28;20035;-40
2022/07/04 08:23:54;;;;;;;2.58;1.50;;;22.70;98.10;;;22.46;64.84;97540.31;4959298;28;20078;-40
2022/07/04 08:26:20;;;;;;;2.05;1.40;;;22.60;98.60;;;22.45;61.52;97551.19;4959224;28;20114;-40
2022/07/04 08:28:46;;;;;;;2.22;1.10;;;22.50;97.90;;;22.56;62.86;97547.59;4955284;28;20133;-40
2022/07/04 08:31:11;;;;;;;4.80;1.67;;;22.60;98.00;;;22.58;62.14;97549.19;4952161;28;20035;-40
2022/07/04 08:33:37;;;;;;;2.30;1.15;;;22.60;97.70;;;22.71;61.39;97542.78;4954654;28;20039;-40
2022/07/04 08:36:04;;;;;;;2.53;1.40;;;22.70;97.50;;;22.69;61.32;97535.69;4961365;28;20597;-40
2022/07/04 08:38:30;;;;;;;2.35;1.40;;;22.80;97.70;;;22.88;60.60;97550.28;4959216;28;20023;-40
2022/07/04 08:41:02;;;;;;;1.85;1.40;;;22.90;97.20;;;23.04;59.41;97550.72;4963009;28;20039;-40
2022/07/04 08:43:33;;;;;;;2.35;1.50;;;23.00;96.70;;;23.15;60.81;97536.34;4958048;28;20174;-40
2022/07/04 08:46:03;;;;;;;9.63;1.52;;;23.20;97.30;;;23.12;57.50;97544.69;4953930;28;20038;-40
2022/07/04 08:48:31;;;;;;;3.15;1.70;;;23.30;95.70;;;23.28;58.31;97541.53;4959821;28;20035;-40
2022/07/04 08:51:10;;;;;;;2.70;1.40;;;23.40;96.30;;;23.47;58.42;97539.91;4956389;28;20080;-40
2022/07/04 08:53:39;;;;;;;3.67;1.58;;;23.50;96.30;;;23.60;59.73;97537.88;4943939;28;20037;-40
2022/07/04 08:58:51;;;;;;;3.47;1.50;;;23.70;96.70;;;23.68;58.97;97539.88;4942878;28;20097;-40
2022/07/04 09:01:17;;;;;;;3.50;1.30;;;23.70;96.00;;;23.54;57.21;97546.47;4956423;28;20027;-40
2022/07/04 09:03:45;;;;;;;1.35;1.25;;;23.70;95.90;;;23.64;57.06;97547.38;4935999;28;20137;-40
2022/07/04 09:06:12;;;;;;;3.13;1.55;;;23.70;95.50;;;23.72;56.18;97555.59;4956437;28;20030;-40
2022/07/04 09:08:39;;;;;;;6.60;1.60;;;23.80;95.50;;;23.68;54.67;97553.34;4961504;28;20537;-41
2022/07/04 09:11:06;;;;;;;2.40;1.52;;;23.80;94.20;;;23.58;55.68;97529.91;4958639;28;20058;-40
2022/07/04 09:13:32;;;;;;;2.33;1.50;;;23.80;94.80;;;23.73;56.59;97554.63;4951525;28;20043;-40
2022/07/04 09:16:00;;;;;;;3.28;1.70;;;23.90;95.00;;;23.68;55.70;97562.25;4949797;28;20169;-40
2022/07/04 09:18:35;;;;;;;2.60;1.40;;;24.00;94.80;;;23.61;55.04;97558.41;4958866;28;20066;-40
2022/07/04 09:21:08;;;;;;;4.28;1.63;;;23.80;94.10;;;23.65;55.89;97562.50;4957411;28;20118;-40
2022/07/04 09:23:42;;;;;;;3.30;1.60;;;23.70;94.40;;;23.73;59.23;97564.56;4953623;28;20031;-40
2022/07/04 09:26:19;;;;;;;2.15;1.63;;;23.80;95.60;;;23.76;53.19;97573.22;4953936;28;20042;-40
2022/07/04 09:28:53;;;;;;;4.00;1.38;;;24.00;94.60;;;23.89;55.46;97564.09;4953311;28;20088;-40
2022/07/04 09:31:25;;;;;;;4.95;1.70;;;24.00;94.20;;;24.00;54.38;97570.19;4953527;28;20475;-40
2022/07/04 09:33:55;;;;;;;3.22;1.73;;;24.10;94.20;;;23.97;56.04;97567.78;4933479;28;20042;-40
2022/07/04 09:36:28;;;;;;;3.58;1.73;;;24.10;94.30;;;23.89;54.45;97564.09;4954105;28;20039;-40
2022/07/04 09:39:20;;;;;;;2.75;1.70;;;24.00;94.00;;;23.79;57.21;97555.91;4955111;28;20518;-40
2022/07/04 09:42:01;;;;;;;2.25;1.45;;;23.90;94.40;;;23.77;54.76;97563.28;4959232;28;20066;-40
2022/07/04 09:44:43;;;;;;;2.55;1.75;;;23.80;94.10;;;23.64;54.31;97568.91;4956247;28;20100;-40
2022/07/04 09:47:27;;;;;;;3.80;1.70;;;23.80;93.50;;;23.79;57.34;97569.38;4953758;28;20082;-40
2022/07/04 09:50:18;;;;;;;2.65;1.55;;;23.80;94.60;;;24.05;56.99;97577.88;4955567;28;20030;-41
2022/07/04 09:52:53;;;;;;;3.92;1.58;;;24.00;95.10;;;24.33;56.37;97570.00;4961724;28;20038;-40
2022/07/04 09:55:35;;;;;;;3.03;1.52;;;24.30;94.80;;;24.66;56.23;97581.44;4951751;28;20034;-40
2022/07/04 09:58:04;;;;;;;5.45;1.60;;;24.50;94.60;;;24.99;53.63;97572.06;4953008;28;20019;-40
2022/07/04 10:00:42;;;;;;;3.53;1.80;;;24.90;94.00;;;25.07;52.30;97579.44;4947802;28;20034;-40
2022/07/04 10:03:27;;;;;;;2.30;1.50;;;25.10;93.00;;;25.13;49.89;97587.81;4959863;28;20450;-40
2022/07/04 10:06:11;;;;;;;2.83;1.50;;;25.20;91.90;;;25.22;49.37;97580.69;4962271;28;20121;-40
2022/07/04 10:08:41;;;;;;;3.15;1.63;;;25.20;91.10;;;25.18;47.19;97571.19;4958943;28;20041;-40
2022/07/04 10:11:08;;;;;;;6.15;2.08;;;25.30;90.20;;;24.92;49.79;97571.78;4958792;28;20039;-40
2022/07/04 10:13:34;;;;;;;3.10;1.60;;;25.10;91.00;;;24.80;49.33;97577.47;4962962;28;20174;-40
2022/07/04 10:16:00;;;;;;;3.08;1.60;;;25.00;90.80;;;24.64;48.98;97580.72;4957741;28;20034;-40
2022/07/04 10:18:27;;;;;;;4.68;1.73;;;24.80;90.50;;;24.36;51.75;97581.34;4963776;28;20631;-40
2022/07/04 10:20:55;;;;;;;6.40;2.05;;;24.60;91.40;;;23.96;50.01;97579.56;4960714;28;20173;-40
2022/07/04 10:23:23;;;;;;;3.40;1.73;;;24.40;90.10;;;23.90;50.40;97582.78;4956695;28;20031;-40
2022/07/04 10:25:51;;;;;;;3.45;1.30;;;24.10;90.80;;;24.05;50.81;97582.41;4960175;28;20053;-40
2022/07/04 10:28:18;;;;;;;3.20;1.65;;;24.10;91.20;;;24.04;54.02;97584.25;4960522;28;20142;-40
2022/07/04 10:30:51;;;;;;;2.17;1.40;;;24.10;92.50;;;23.95;50.85;97583.22;4961301;28;20053;-40
2022/07/04 10:33:22;;;;;;;3.53;1.80;;;24.10;90.80;;;23.98;51.06;97576.72;4943110;28;20105;-40
2022/07/04 10:35:56;;;;;;;3.28;1.90;;;24.10;91.10;;;23.97;49.96;97575.00;4944403;28;20031;-40